Alexander, Maine
Current Conditions -  °F | °C
As of 10:15 PM on Wednesday 22 Oct 2014 (Local Time) from KBHB Reporting Station
Overcast Overcast  
Wind Chill: 39°   Ceiling: 1200
Heat Index: 46°   Visibility: 10mi
Dew Point: 45°   Wind: 18mph
Humidity: 93%   Direction: 30°NNE
Pressure: 30.07"   Gusts: 28mph
Location:  45.0659°N, 67.4987°W
Report Text: KBHB 230215Z AUTO 03016G24KT 10SM OVC012 08/07 A3007 RMK AO1
Loading
Personal Weather Stations






























Interactive Weather Map
Tropical Storm Tracking
New forecast layout! Learn more

10-Day Weather Forecast

Advertisements
Track Severe Weather on mobile